• Join FlightAware (Why Join?)
  • Login
  • US Flag 
01:02AM EDT


 

Airport Tracker/Info


-or-


 

Live Flight TrackerFlight Track Log ✈ AAR214 ✈ 04-Aug-2013 ✈ RKSI / ICN - KSFO

Flight Track Log - Related Links

Times and Time Zones

All times are in EDT time to prevent confusion due to time zone crossing. See the AAR214 flight status page for this flight to view local times or setup timezone preferences in your user account.

Time Position Orientation Groundspeed Altitude Reporting Facility
EDT Latitude Longitude Course Direction KTS MPH feet Rate Location/Type
04:09AM 37.8272 126.9664 49° Northeast  Level FlightAware Approximate
04:10AM 37.9164 127.0961 49° Northeast  Level FlightAware Approximate
04:10AM 37.4540 126.1550 49° Northeast 293 337 10,600  Level FlightAware
04:11AM 38.0055 127.2262 49° Northeast  Level FlightAware Approximate
04:11AM 37.4080 126.1380 196° South 303 349 10,800  Level FlightAware
04:12AM 37.3270 126.3330 118° Southeast 13,500 1,740 Climbing FlightAware
04:13AM 37.3260 126.4100 91° East 414 476 14,500 1,920 Climbing FlightAware
04:13AM 37.3250 126.5240 91° East 421 484 16,100 1,920 Climbing FlightAware
04:14AM 37.3230 126.6180 92° East 429 494 17,200 1,560 Climbing FlightAware
04:15AM 37.3220 126.6980 91° East 434 499 18,100 1,560 Climbing FlightAware
04:15AM 37.3210 126.7940 91° East 440 506 19,100 1,680 Climbing FlightAware
04:16AM 37.3200 126.8910 91° East 446 513 20,100 1,860 Climbing FlightAware
04:16AM 37.3230 126.9760 87° East 438 504 21,300 1,800 Climbing FlightAware
04:17AM 37.3160 127.0940 94° East 435 501 22,600 1,560 Climbing FlightAware
04:18AM 37.3040 127.1690 101° East 438 504 23,300 1,380 Climbing FlightAware
04:18AM 37.2910 127.2580 100° East 439 505 24,100 1,500 Climbing FlightAware
04:19AM 37.2780 127.3440 101° East 433 498 25,100 1,500 Climbing FlightAware
04:20AM 37.2650 127.4320 100° East 431 496 25,900 1,260 Climbing FlightAware
04:20AM 37.2530 127.5210 100° East 431 496 26,600 1,080 Climbing FlightAware
04:21AM 37.2410 127.6070 100° East 433 498 27,200 960 Climbing FlightAware
04:21AM 37.2280 127.7060 99° East 438 504 27,800 900 Climbing FlightAware
04:22AM 37.2170 127.7940 99° East 438 504 28,400 540 Climbing FlightAware
04:23AM 37.2010 127.9020 101° East 440 506 28,600 120 Climbing FlightAware
04:23AM 37.1900 127.9790 100° East 440 506 28,600 180 Level FlightAware
04:26AM 37.3825 128.2587 49° Northeast  Level Estimated
04:27AM 37.4711 128.3883 49° Northeast  Level Estimated
04:28AM 37.5596 128.5182 49° Northeast  Level Estimated
04:29AM 37.6480 128.6484 49° Northeast  Level Estimated
04:30AM 37.7362 128.7789 49° Northeast  Level Estimated
04:31AM 37.8242 128.9097 50° Northeast  Level Estimated
04:32AM 37.9121 129.0408 50° Northeast  Level Estimated
04:33AM 37.9999 129.1722 50° Northeast  Level Estimated
04:34AM 38.0875 129.3040 50° Northeast  Level Estimated
04:35AM 38.1750 129.4361 50° Northeast  Level Estimated
04:36AM 38.2623 129.5685 50° Northeast  Level Estimated
04:37AM 38.3495 129.7012 50° Northeast  Level Estimated
04:38AM 38.4365 129.8342 50° Northeast  Level Estimated
04:39AM 38.5233 129.9675 50° Northeast  Level Estimated
04:40AM 38.6101 130.1012 50° Northeast  Level Estimated
04:41AM 38.6966 130.2352 50° Northeast  Level Estimated
04:42AM 38.7831 130.3695 50° Northeast  Level Estimated
04:42AM 36.4510 131.1320 50° Northeast 518 596 33,000  Level FlightAware
04:43AM 36.4240 131.2350 108° East 516 594 33,000  Level FlightAware
04:43AM 36.3980 131.3340 108° East 512 589 33,000  Level FlightAware
04:44AM 36.3760 131.4220 107° East 512 589 33,000  Level FlightAware
04:44AM 36.3550 131.5080 107° East 512 589 33,000  Level FlightAware
04:45AM 36.3680 131.5910 79° East 513 590 33,000  Level FlightAware
04:45AM 36.3650 131.6960 92° East 512 589 33,000  Level FlightAware
04:46AM 36.3620 131.7830 92° East 512 589 33,000  Level FlightAware
04:47AM 36.3590 131.8980 92° East 512 589 33,000  Level FlightAware
04:47AM 36.3540 132.0190 93° East 509 586 33,000  Level FlightAware
04:48AM 36.3510 132.1210 92° East 508 585 33,000  Level FlightAware
04:48AM 36.3470 132.2210 93° East 507 583 33,000  Level FlightAware
04:49AM 36.3440 132.3230 92° East 507 583 33,000  Level FlightAware
04:49AM 36.3400 132.4250 93° East 507 583 33,000  Level FlightAware
04:50AM 36.3380 132.5190 91° East 507 583 33,000  Level FlightAware
04:51AM 36.3320 132.6270 94° East 506 582 33,000  Level FlightAware
04:51AM 36.3280 132.7300 93° East 508 585 33,000  Level FlightAware
04:52AM 36.3230 132.8460 93° East 509 586 33,000  Level FlightAware
04:52AM 36.3200 132.9280 93° East 510 587 33,000  Level FlightAware
04:53AM 36.3140 133.0500 93° East 510 587 33,000  Level FlightAware
04:54AM 36.3110 133.1370 92° East 510 587 33,000  Level FlightAware
04:54AM 36.3070 133.2360 93° East 510 587 33,000  Level FlightAware
04:55AM 36.3060 133.3410 91° East 510 587 33,000  Level FlightAware
04:55AM 36.3090 133.4420 88° East 509 586 33,000  Level FlightAware
04:56AM 36.3130 133.5600 88° East 509 586 33,000  Level FlightAware
04:57AM 36.3180 133.6770 87° East 509 586 33,000  Level FlightAware
04:57AM 36.3220 133.7750 87° East 508 585 33,000  Level FlightAware
04:58AM 36.3270 133.8960 87° East 508 585 33,000  Level FlightAware
04:59AM 36.3320 134.0050 87° East 507 583 33,000  Level FlightAware
04:59AM 36.3350 134.0920 88° East 507 583 33,000  Level FlightAware
05:00AM 36.3410 134.2310 87° East 506 582 33,000  Level FlightAware
05:01AM 36.3450 134.3560 88° East 504 580 33,000  Level FlightAware
05:01AM 36.3480 134.4570 88° East 506 582 33,000  Level FlightAware
05:02AM 36.3520 134.5750 88° East 506 582 33,000  Level FlightAware
05:02AM 36.3540 134.6600 88° East 506 582 33,000  Level FlightAware
05:04AM 36.3610 134.8850 88° East 506 582 33,000  Level FlightAware
05:04AM 36.3640 134.9900 88° East 507 583 33,000  Level FlightAware
05:05AM 36.3670 135.0960 88° East 507 583 33,000  Level FlightAware
05:05AM 36.3700 135.2100 88° East 507 583 33,000  Level FlightAware
05:06AM 36.3730 135.3140 88° East 508 585 33,000  Level FlightAware
05:07AM 36.3750 135.4000 88° East 508 585 33,000  Level FlightAware
05:07AM 36.3780 135.4950 88° East 508 585 33,000  Level FlightAware
05:08AM 36.3800 135.6050 89° East 510 587 33,000  Level FlightAware
05:08AM 36.3830 135.7030 88° East 511 588 33,000  Level FlightAware
05:09AM 36.3850 135.8100 89° East 512 589 33,000  Level FlightAware
05:09AM 36.3870 135.9090 89° East 514 592 33,000  Level FlightAware
05:10AM 36.3900 136.0270 88° East 516 594 33,000  Level FlightAware
05:11AM 36.3910 136.1020 89° East 516 594 33,000  Level FlightAware
05:11AM 36.3930 136.2190 89° East 516 594 33,000  Level FlightAware
05:12AM 36.3950 136.3220 89° East 515 593 33,000  Level FlightAware
05:12AM 36.4000 136.4250 87° East 515 593 33,000  Level FlightAware
05:13AM 36.4090 136.5280 84° East 515 593 33,000  Level FlightAware
05:14AM 36.4200 136.6290 82° East 515 593 33,000  Level FlightAware
05:14AM 36.4300 136.7330 83° East 514 592 33,000  Level FlightAware
05:15AM 36.4410 136.8350 82° East 514 592 33,000  Level FlightAware
05:15AM 36.4530 136.9510 83° East 513 590 33,000  Level FlightAware
05:16AM 36.4650 137.0390 80° East 510 587 33,000  Level FlightAware
05:16AM 36.4980 137.1290 65° Northeast 506 582 33,000  Level FlightAware
05:17AM 36.5530 137.2220 54° Northeast 511 588 33,000  Level FlightAware
05:18AM 36.6000 137.3030 54° Northeast 512 589 33,000  Level FlightAware
05:18AM 36.6260 137.3560 59° Northeast 515 593 33,000  Level FlightAware
05:19AM 36.6460 137.4400 73° East 518 596 33,000  Level FlightAware
05:19AM 36.6530 137.5590 86° East 519 597 33,000  Level FlightAware
05:20AM 36.6580 137.6610 86° East 520 598 33,000  Level FlightAware
05:20AM 36.6620 137.7670 87° East 521 600 33,000  Level FlightAware
05:21AM 36.6660 137.8710 87° East 522 601 33,000  Level FlightAware
05:22AM 36.6710 137.9780 87° East 523 602 33,000  Level FlightAware
05:22AM 36.6750 138.0820 87° East 522 601 33,000  Level FlightAware
05:23AM 36.6790 138.1870 87° East 522 601 33,000  Level FlightAware
05:23AM 36.6830 138.2900 87° East 522 601 33,000  Level FlightAware
05:24AM 36.6870 138.3920 87° East 523 602 33,000  Level FlightAware
05:24AM 36.6910 138.4890 87° East 524 603 33,000  Level FlightAware
05:25AM 36.6950 138.6050 88° East 524 603 33,000  Level FlightAware
05:26AM 36.6990 138.7050 87° East 524 603 33,000  Level FlightAware
05:26AM 36.7020 138.8180 88° East 524 603 33,000  Level FlightAware
05:27AM 36.7060 138.9180 87° East 524 603 33,000  Level FlightAware
05:27AM 36.7090 139.0290 88° East 524 603 33,000  Level FlightAware
05:28AM 36.7130 139.1300 87° East 524 603 33,000  Level FlightAware
05:29AM 36.7160 139.2420 88° East 523 602 33,000  Level FlightAware
05:29AM 36.7190 139.3480 88° East 519 597 33,000  Level FlightAware
05:30AM 36.7220 139.4540 88° East 509 586 33,000  Level FlightAware
05:30AM 36.7250 139.5470 88° East 508 585 33,000  Level FlightAware
05:31AM 36.7280 139.6520 88° East 510 587 33,000  Level FlightAware
05:31AM 36.7310 139.7630 88° East 511 588 33,000  Level FlightAware
05:32AM 36.7330 139.8660 89° East 511 588 33,000  Level FlightAware
05:33AM 36.7360 139.9620 88° East 512 589 33,000  Level FlightAware
05:33AM 36.7380 140.0740 89° East 513 590 33,000  Level FlightAware
05:34AM 36.7410 140.1750 88° East 513 590 33,000  Level FlightAware
05:34AM 36.7430 140.2810 89° East 514 592 33,000  Level FlightAware
05:35AM 36.7470 140.3740 87° East 513 590 33,000  Level FlightAware
05:36AM 36.7550 140.4800 85° East 513 590 33,000  Level FlightAware
05:36AM 36.7640 140.5760 83° East 513 590 33,000  Level FlightAware
05:37AM 36.7740 140.6940 84° East 515 593 33,000  Level FlightAware
05:37AM 36.7810 140.7850 84° East 515 593 33,000  Level FlightAware
05:38AM 36.7900 140.8900 84° East 516 594 33,000  Level FlightAware
05:38AM 36.7990 140.9950 84° East 516 594 33,000  Level FlightAware
05:39AM 36.8070 141.0980 84° East 517 595 33,000  Level FlightAware
05:40AM 36.8160 141.2070 84° East 516 594 33,000  Level FlightAware
05:40AM 36.8240 141.3090 84° East 516 594 33,000  Level FlightAware
05:41AM 36.8330 141.4230 84° East 515 593 33,000  Level FlightAware
05:41AM 36.8400 141.5150 85° East 515 593 33,000  Level FlightAware
05:42AM 36.8490 141.6330 85° East 515 593 33,000  Level FlightAware
05:43AM 36.8580 141.7520 85° East 515 593 33,000  Level FlightAware
05:43AM 36.8660 141.8580 85° East 516 594 33,000  Level FlightAware
05:44AM 36.8740 141.9730 85° East 517 595 33,000  Level FlightAware
05:45AM 36.8850 142.1320 85° East 518 596 33,000  Level FlightAware
05:46AM 36.8940 142.2490 84° East 518 596 33,000  Level FlightAware
05:46AM 36.8990 142.3290 86° East 518 596 33,000  Level FlightAware
05:47AM 36.9100 142.4910 85° East 517 595 33,000  Level FlightAware
05:47AM 36.9170 142.5860 85° East 517 595 33,000  Level FlightAware
05:48AM 36.9230 142.6790 85° East 517 595 33,000  Level FlightAware
05:49AM 36.9330 142.8250 85° East 516 594 33,000  Level FlightAware
05:49AM 36.9400 142.9350 85° East 515 593 33,000  Level FlightAware
05:50AM 36.9450 143.0210 86° East 515 593 33,000  Level FlightAware
05:51AM 36.9490 143.0840 85° East 514 592 33,000  Level FlightAware
05:52AM 36.9660 143.3610 86° East 513 590 33,000  Level FlightAware
05:52AM 36.9710 143.4520 86° East 513 590 33,000  Level FlightAware
05:53AM 36.9760 143.5420 86° East 513 590 33,000  Level FlightAware
05:54AM 36.9810 143.6330 86° East 513 590 33,000  Level FlightAware
05:54AM 36.9860 143.7240 86° East 513 590 33,000  Level FlightAware
05:55AM 36.9910 143.8140 86° East 513 590 33,000  Level FlightAware
05:55AM 36.9960 143.9050 86° East 513 590 33,000  Level FlightAware
05:58AM 37.1483 144.1971 57° Northeast  Level Estimated
05:59AM 37.2224 144.3400 57° Northeast  Level Estimated
06:00AM 37.2963 144.4831 57° Northeast  Level Estimated
06:01AM 37.3700 144.6266 57° Northeast  Level Estimated
06:01AM 37.1210 144.9880 57° Northeast 506 582 33,000  Level FlightAware
06:02AM 37.1320 145.0830 82° East 507 583 33,000  Level FlightAware
06:02AM 37.1430 145.1740 81° East 507 583 33,000  Level FlightAware
06:03AM 37.1580 145.3110 82° East 508 585 33,000  Level FlightAware
06:04AM 37.1690 145.4040 82° East 508 585 33,000  Level FlightAware
06:04AM 37.1850 145.5520 82° East 508 585 33,000  Level FlightAware
06:05AM 37.2030 145.7060 82° East 508 585 33,000  Level FlightAware
06:06AM 37.2130 145.7960 82° East 508 585 33,000  Level FlightAware
06:06AM 37.2230 145.8850 82° East 508 585 33,000  Level FlightAware
06:07AM 37.2330 145.9750 82° East 508 585 33,000  Level FlightAware
06:08AM 37.2430 146.0640 82° East 508 585 33,000  Level FlightAware
06:08AM 37.2530 146.1540 82° East 508 585 33,000  Level FlightAware
06:09AM 37.2630 146.2430 82° East 508 585 33,000  Level FlightAware
06:09AM 37.2730 146.3330 82° East 508 585 33,000  Level FlightAware
06:10AM 37.2830 146.4220 82° East 508 585 33,000  Level FlightAware
06:11AM 37.2940 146.5240 82° East 508 585 33,000  Level FlightAware
06:11AM 37.3040 146.6140 82° East 508 585 33,000  Level FlightAware
06:12AM 37.3130 146.6910 82° East 508 585 33,000  Level FlightAware
06:13AM 37.3230 146.7830 82° East 508 585 33,000  Level FlightAware
06:13AM 37.3330 146.8720 82° East 508 585 33,000  Level FlightAware
06:14AM 37.3430 146.9620 82° East 508 585 33,000  Level FlightAware
06:14AM 37.3530 147.0520 82° East 508 585 33,000  Level FlightAware
06:17AM 37.5098 147.3723 58° Northeast  Level Estimated
06:18AM 37.5807 147.5183 58° Northeast  Level Estimated
06:19AM 37.6515 147.6647 59° Northeast  Level Estimated
06:20AM 37.7221 147.8112 59° Northeast  Level Estimated
06:21AM 37.7926 147.9581 59° Northeast  Level Estimated
06:22AM 37.8628 148.1053 59° Northeast  Level Estimated
06:23AM 37.9329 148.2527 59° Northeast  Level Estimated
06:24AM 38.0027 148.4004 59° Northeast  Level Estimated
06:25AM 38.0724 148.5484 59° Northeast  Level Estimated
06:26AM 38.1419 148.6967 59° Northeast  Level Estimated
06:27AM 38.2113 148.8452 59° Northeast  Level Estimated
06:28AM 38.2804 148.9941 59° Northeast  Level Estimated
06:29AM 38.3493 149.1432 59° Northeast  Level Estimated
06:30AM 38.4181 149.2926 60° Northeast  Level Estimated
06:31AM 38.4866 149.4423 60° Northeast  Level Estimated
06:32AM 38.5550 149.5923 60° Northeast  Level Estimated
06:33AM 38.6232 149.7425 60° Northeast  Level Estimated
06:34AM 38.6912 149.8931 60° Northeast  Level Estimated
06:35AM 38.7590 150.0439 60° Northeast  Level Estimated
06:36AM 38.8266 150.1950 60° Northeast  Level Estimated
06:37AM 38.8940 150.3465 60° Northeast  Level Estimated
06:38AM 38.9612 150.4982 60° Northeast  Level Estimated
06:39AM 39.0282 150.6501 60° Northeast  Level Estimated
06:40AM 39.0950 150.8024 60° Northeast  Level Estimated
06:41AM 39.1616 150.9550 61° Northeast  Level Estimated
06:42AM 39.2280 151.1078 61° Northeast  Level Estimated
06:43AM 39.2943 151.2610 61° Northeast  Level Estimated
06:44AM 39.3603 151.4144 61° Northeast  Level Estimated
06:45AM 39.4261 151.5681 61° Northeast  Level Estimated
06:46AM 39.4917 151.7221 61° Northeast  Level Estimated
06:47AM 39.5571 151.8764 61° Northeast  Level Estimated
06:48AM 39.6451 152.0852 61° Northeast  Level Estimated
06:49AM 39.7327 152.2946 61° Northeast  Level Estimated
06:50AM 39.8200 152.5045 62° Northeast  Level Estimated
06:51AM 39.9069 152.7149 62° Northeast  Level Estimated
06:52AM 39.9934 152.9259 62° Northeast  Level Estimated
06:53AM 40.0795 153.1374 62° Northeast  Level Estimated
06:54AM 40.1652 153.3494 62° Northeast  Level Estimated
06:55AM 40.2505 153.5620 62° Northeast  Level Estimated
06:56AM 40.3355 153.7751 62° Northeast  Level Estimated
06:57AM 40.4200 153.9887 62° Northeast  Level Estimated
06:58AM 40.5042 154.2029 63° Northeast  Level Estimated
06:59AM 40.5879 154.4176 63° Northeast  Level Estimated
07:00AM 40.6713 154.6328 63° Northeast  Level Estimated
07:01AM 40.7543 154.8486 63° Northeast  Level Estimated
07:02AM 40.8368 155.0649 63° Northeast  Level Estimated
07:03AM 40.9190 155.2818 63° Northeast  Level Estimated
07:04AM 41.0007 155.4992 63° Northeast  Level Estimated
07:05AM 41.0821 155.7171 64° Northeast  Level Estimated
07:06AM 41.1630 155.9356 64° Northeast  Level Estimated
07:07AM 41.2435 156.1546 64° Northeast  Level Estimated
07:08AM 41.3236 156.3742 64° Northeast  Level Estimated
07:09AM 41.4033 156.5943 64° Northeast  Level Estimated
07:10AM 41.4826 156.8149 64° Northeast  Level Estimated
07:11AM 41.5614 157.0361 64° Northeast  Level Estimated
07:12AM 41.6398 157.2578 65° Northeast  Level Estimated
07:13AM 41.7178 157.4800 65° Northeast  Level Estimated
07:14AM 41.7954 157.7028 65° Northeast  Level Estimated
07:15AM 41.8725 157.9261 65° Northeast  Level Estimated
07:16AM 41.9492 158.1500 65° Northeast  Level Estimated
07:17AM 42.0254 158.3744 65° Northeast  Level Estimated
07:18AM 42.1012 158.5993 66° East  Level Estimated
07:19AM 42.1766 158.8248 66° East  Level Estimated
07:20AM 42.2515 159.0508 66° East  Level Estimated
07:21AM 42.3260 159.2774 66° East  Level Estimated
07:22AM 42.4001 159.5044 66° East  Level Estimated
07:23AM 42.4737 159.7321 66° East  Level Estimated
07:24AM 42.5468 159.9602 66° East  Level Estimated
07:25AM 42.6195 160.1889 67° East  Level Estimated
07:26AM 42.6917 160.4181 67° East  Level Estimated
07:27AM 42.7635 160.6479 67° East  Level Estimated
07:28AM 42.8348 160.8781 67° East  Level Estimated
07:29AM 42.9057 161.1090 67° East  Level Estimated
07:30AM 42.9761 161.3403 67° East  Level Estimated
07:31AM 43.0460 161.5722 68° East  Level Estimated
07:32AM 43.1154 161.8046 68° East  Level Estimated
07:33AM 43.1844 162.0375 68° East  Level Estimated
07:34AM 43.2529 162.2709 68° East  Level Estimated
07:35AM 43.3209 162.5049 68° East  Level Estimated
07:36AM 43.3885 162.7394 68° East  Level Estimated
07:37AM 43.4556 162.9744 68° East  Level Estimated
07:38AM 43.5221 163.2100 69° East  Level Estimated
07:39AM 43.5882 163.4460 69° East  Level Estimated
07:40AM 43.6539 163.6826 69° East  Level Estimated
07:41AM 43.7190 163.9197 69° East  Level Estimated
07:42AM 43.7836 164.1573 69° East  Level Estimated
07:43AM 43.8478 164.3954 69° East  Level Estimated
07:44AM 43.9114 164.6340 70° East  Level Estimated
07:45AM 43.9746 164.8732 70° East  Level Estimated
07:46AM 44.0372 165.1128 70° East  Level Estimated
07:47AM 44.0994 165.3530 70° East  Level Estimated
07:48AM 44.1610 165.5936 70° East  Level Estimated
07:49AM 44.2222 165.8347 70° East  Level Estimated
07:50AM 44.2828 166.0764 71° East  Level Estimated
07:51AM 44.3429 166.3185 71° East  Level Estimated
07:52AM 44.4025 166.5612 71° East  Level Estimated
07:53AM 44.4616 166.8043 71° East  Level Estimated
07:54AM 44.5202 167.0480 71° East  Level Estimated
07:55AM 44.5783 167.2921 71° East  Level Estimated
07:56AM 44.6358 167.5367 72° East  Level Estimated
07:57AM 44.6928 167.7818 72° East  Level Estimated
07:58AM 44.7493 168.0273 72° East  Level Estimated
07:59AM 44.8053 168.2733 72° East  Level Estimated
08:00AM 44.8607 168.5199 72° East  Level Estimated
08:01AM 44.9156 168.7669 72° East  Level Estimated
08:02AM 44.9700 169.0143 73° East  Level Estimated
08:03AM 45.0238 169.2623 73° East  Level Estimated
08:04AM 45.0771 169.5106 73° East  Level Estimated
08:05AM 45.1298 169.7595 73° East  Level Estimated
08:06AM 45.1820 170.0088 73° East  Level Estimated
08:07AM 45.2337 170.2586 74° East  Level Estimated
08:08AM 45.2848 170.5088 74° East  Level Estimated
08:09AM 45.3354 170.7595 74° East  Level Estimated
08:10AM 45.3854 171.0106 74° East  Level Estimated
08:11AM 45.4349 171.2621 74° East  Level Estimated
08:12AM 45.4838 171.5141 74° East  Level Estimated
08:13AM 45.5322 171.7666 75° East  Level Estimated
08:14AM 45.5800 172.0194 75° East  Level Estimated
08:15AM 45.6273 172.2727 75° East  Level Estimated
08:16AM 45.6740 172.5264 75° East  Level Estimated
08:17AM 45.7201 172.7806 75° East  Level Estimated
08:18AM 45.7657 173.0351 76° East  Level Estimated
08:19AM 45.8107 173.2901 76° East  Level Estimated
08:20AM 45.8551 173.5455 76° East  Level Estimated
08:21AM 45.8989 173.8013 76° East  Level Estimated
08:22AM 45.9422 174.0574 76° East  Level Estimated
08:23AM 45.9850 174.3140 76° East  Level Estimated
08:23AM 44.9833 169.9333 71° East 558 642 36,000  Level Oakland Oceanic (ODAPS)
08:23AM 45.0000 170.0000 70° East 565 650 36,000  Level Oakland Oceanic (ODAPS)
08:24AM 46.0271 174.5710 77° East  Level Estimated
08:25AM 46.0687 174.8284 77° East  Level Estimated
08:26AM 46.1096 175.0861 77° East  Level Estimated
08:27AM 46.1501 175.3443 77° East  Level Estimated
08:28AM 46.1899 175.6028 77° East  Level Estimated
08:29AM 45.2589 171.0506 71° East 565 650 36,000  Level FlightAware Transoceanic
08:30AM 45.3095 171.2619 71° East 565 650 36,000  Level FlightAware Transoceanic
08:31AM 45.3597 171.4735 71° East 565 650 36,000  Level FlightAware Transoceanic
08:32AM 45.4095 171.6855 72° East 565 650 36,000  Level FlightAware Transoceanic
08:33AM 45.4590 171.8979 72° East 565 650 36,000  Level FlightAware Transoceanic
08:34AM 45.5080 172.1106 72° East 565 650 36,000  Level FlightAware Transoceanic
08:35AM 45.5567 172.3238 72° East 565 650 36,000  Level FlightAware Transoceanic
08:36AM 45.6049 172.5372 72° East 565 650 36,000  Level FlightAware Transoceanic
08:37AM 45.6528 172.7511 72° East 565 650 36,000  Level FlightAware Transoceanic
08:37AM 45.6833 172.9000 72° East 568 654 36,000  Level Oakland Oceanic (ODAPS)
08:38AM 45.7002 172.9653 72° East 565 650 36,000  Level FlightAware Transoceanic
08:39AM 45.7473 173.1799 73° East 565 650 36,000  Level FlightAware Transoceanic
08:40AM 45.7939 173.3949 73° East 565 650 36,000  Level FlightAware Transoceanic
08:41AM 45.8402 173.6102 73° East 565 650 36,000  Level FlightAware Transoceanic
08:42AM 45.8860 173.8258 73° East 565 650 36,000  Level FlightAware Transoceanic
08:43AM 45.9634 174.2045 73° East 568 654 36,000  Level FlightAware Transoceanic
08:44AM 46.0086 174.4232 74° East 568 654 36,000  Level FlightAware Transoceanic
08:45AM 46.0534 174.6423 74° East 568 654 36,000  Level FlightAware Transoceanic
08:46AM 46.0978 174.8617 74° East 568 654 36,000  Level FlightAware Transoceanic
08:47AM 46.1417 175.0814 74° East 568 654 36,000  Level FlightAware Transoceanic
08:48AM 46.1853 175.3015 74° East 568 654 36,000  Level FlightAware Transoceanic
08:49AM 46.2284 175.5220 74° East 568 654 36,000  Level FlightAware Transoceanic
08:50AM 46.2711 175.7428 74° East 568 654 36,000  Level FlightAware Transoceanic
08:51AM 46.3134 175.9639 75° East 568 654 36,000  Level FlightAware Transoceanic
08:51AM 46.3167 175.9500 75° East 568 654 36,000  Level Oakland Oceanic (ODAPS)
08:52AM 46.3552 176.1854 75° East 568 654 36,000  Level FlightAware Transoceanic
08:53AM 46.3966 176.4072 75° East 568 654 36,000  Level FlightAware Transoceanic
08:54AM 46.4376 176.6293 75° East 568 654 36,000  Level FlightAware Transoceanic
08:55AM 46.4782 176.8518 75° East 568 654 36,000  Level FlightAware Transoceanic
08:56AM 46.5183 177.0746 75° East 568 654 36,000  Level FlightAware Transoceanic
08:57AM 46.5603 177.2885 76° East 568 654 36,000  Level FlightAware Transoceanic
08:58AM 46.5994 177.5128 76° East 568 654 36,000  Level FlightAware Transoceanic
08:59AM 46.6380 177.7373 76° East 568 654 36,000  Level FlightAware Transoceanic
09:00AM 46.6762 177.9622 76° East 568 654 36,000  Level FlightAware Transoceanic
09:01AM 46.7140 178.1874 76° East 568 654 36,000  Level FlightAware Transoceanic
09:02AM 46.7513 178.4129 77° East 568 654 36,000  Level FlightAware Transoceanic
09:03AM 46.7882 178.6387 77° East 568 654 36,000  Level FlightAware Transoceanic
09:04AM 46.8246 178.8649 77° East 568 654 36,000  Level FlightAware Transoceanic
09:04AM 46.8500 179.0500 77° East 567 652 36,000  Level Oakland Oceanic (ODAPS)
09:05AM 46.8605 179.0913 77° East 568 654 36,000  Level FlightAware Transoceanic
09:06AM 46.8961 179.3180 77° East 568 654 36,000  Level FlightAware Transoceanic
09:07AM 46.9312 179.5450 77° East 568 654 36,000  Level FlightAware Transoceanic
09:08AM 46.9658 179.7724 78° East 568 654 36,000  Level FlightAware Transoceanic
09:09AM 47.0000 -180.0000 78° East 568 654 36,000  Level FlightAware Transoceanic
09:09AM 47.0000 180.0000 78° East 568 654 36,000  Level Oakland Oceanic (ODAPS)
09:10AM 47.0323 -179.7775 78° East 568 654 36,000  Level FlightAware Transoceanic
09:11AM 47.0641 -179.5547 78° East 567 652 36,000  Level FlightAware Transoceanic
09:12AM 47.0955 -179.3317 78° East 567 652 36,000  Level FlightAware Transoceanic
09:13AM 47.1265 -179.1084 79° East 567 652 36,000  Level FlightAware Transoceanic
09:14AM 47.1570 -178.8848 79° East 567 652 36,000  Level FlightAware Transoceanic
09:15AM 47.1913 -178.6297 79° East 568 654 36,000  Level FlightAware Transoceanic
09:16AM 47.2216 -178.4004 79° East 568 654 36,000  Level FlightAware Transoceanic
09:17AM 47.2514 -178.1708 79° East 568 654 36,000  Level FlightAware Transoceanic
09:18AM 47.2808 -177.9410 79° East 568 654 36,000  Level FlightAware Transoceanic
09:18AM 47.3000 -177.8000 80° East 566 651 36,000  Level Oakland Oceanic (ODAPS)
09:19AM 47.3097 -177.7109 80° East 568 654 36,000  Level FlightAware Transoceanic
09:20AM 47.3381 -177.4805 80° East 568 654 36,000  Level FlightAware Transoceanic
09:21AM 47.3661 -177.2499 80° East 568 654 36,000  Level FlightAware Transoceanic
09:22AM 47.3936 -177.0191 80° East 568 654 36,000  Level FlightAware Transoceanic
09:23AM 47.4207 -176.7880 80° East 568 654 36,000  Level FlightAware Transoceanic
09:24AM 47.4473 -176.5567 80° East 568 654 36,000  Level FlightAware Transoceanic
09:25AM 47.4664 -176.3985 81° East 566 651 36,000  Level FlightAware Transoceanic
09:26AM 47.4925 -176.1641 81° East 566 651 36,000  Level FlightAware Transoceanic
09:27AM 47.5181 -175.9295 81° East 566 651 36,000  Level FlightAware Transoceanic
09:28AM 47.5432 -175.6946 81° East 566 651 36,000  Level FlightAware Transoceanic
09:29AM 47.5678 -175.4595 81° East 566 651 36,000  Level FlightAware Transoceanic
09:30AM 47.5919 -175.2242 81° East 566 651 36,000  Level FlightAware Transoceanic
09:31AM 47.6156 -174.9886 82° East 566 651 36,000  Level FlightAware Transoceanic
09:32AM 47.6388 -174.7529 82° East 566 651 36,000  Level FlightAware Transoceanic
09:32AM 47.6500 -174.6333 82° East 569 655 36,000  Level Oakland Oceanic (ODAPS)
09:33AM 47.6615 -174.5169 82° East 566 651 36,000  Level FlightAware Transoceanic
09:34AM 47.6837 -174.2808 82° East 566 651 36,000  Level FlightAware Transoceanic
09:35AM 47.7054 -174.0444 82° East 566 651 36,000  Level FlightAware Transoceanic
09:36AM 47.7267 -173.8079 82° East 566 651 36,000  Level FlightAware Transoceanic
09:37AM 47.7475 -173.5711 83° East 566 651 36,000  Level FlightAware Transoceanic
09:38AM 47.7602 -173.4203 83° East 569 655 36,000  Level FlightAware Transoceanic
09:39AM 47.7806 -173.1771 83° East 569 655 36,000  Level FlightAware Transoceanic
09:40AM 47.8006 -172.9337 83° East 569 655 36,000  Level FlightAware Transoceanic
09:41AM 47.8201 -172.6902 83° East 569 655 36,000  Level FlightAware Transoceanic
09:42AM 47.8390 -172.4464 83° East 569 655 36,000  Level FlightAware Transoceanic
09:43AM 47.8575 -172.2025 84° East 569 655 36,000  Level FlightAware Transoceanic
09:44AM 47.8754 -171.9584 84° East 569 655 36,000  Level FlightAware Transoceanic
09:45AM 47.8928 -171.7141 84° East 569 655 36,000  Level FlightAware Transoceanic
09:46AM 47.9096 -171.4697 84° East 569 655 36,000  Level FlightAware Transoceanic
09:46AM 47.9167 -171.4167 84° East 564 649 36,000  Level Oakland Oceanic (ODAPS)
09:47AM 47.9260 -171.2251 84° East 569 655 36,000  Level FlightAware Transoceanic
09:48AM 47.9418 -170.9804 85° East 569 655 36,000  Level FlightAware Transoceanic
09:49AM 47.9572 -170.7355 85° East 569 655 36,000  Level FlightAware Transoceanic
09:50AM 47.9720 -170.4905 85° East 569 655 36,000  Level FlightAware Transoceanic
09:51AM 47.9862 -170.2453 85° East 569 655 36,000  Level FlightAware Transoceanic
09:52AM 47.9892 -170.2027 85° East 564 649 36,000  Level FlightAware Transoceanic
09:52AM 48.0000 -170.0000 86° East 553 636 36,000  Level Oakland Oceanic (ODAPS)
09:53AM 48.0000 -170.0000 86° East 564 649 36,000  Level FlightAware Transoceanic
09:54AM 48.0096 -169.7733 86° East 564 649 36,000  Level FlightAware Transoceanic
09:55AM 48.0188 -169.5466 87° East 564 649 36,000  Level FlightAware Transoceanic
09:56AM 48.0276 -169.3197 87° East 564 649 36,000  Level FlightAware Transoceanic
09:57AM 48.0359 -169.0928 87° East 564 649 36,000  Level FlightAware Transoceanic
09:58AM 48.0437 -168.8658 87° East 564 649 36,000  Level FlightAware Transoceanic
09:59AM 48.0521 -168.6071 87° East 553 636 36,000  Level FlightAware Transoceanic
10:00AM 48.0592 -168.3747 87° East 553 636 36,000  Level FlightAware Transoceanic
10:00AM 48.0667 -168.2167 88° East 554 638 36,000  Level Oakland Oceanic (ODAPS)
10:01AM 48.0658 -168.1422 88° East 553 636 36,000  Level FlightAware Transoceanic
10:02AM 48.0719 -167.9097 88° East 553 636 36,000  Level FlightAware Transoceanic
10:03AM 48.0775 -167.6771 88° East 553 636 36,000  Level FlightAware Transoceanic
10:04AM 48.0827 -167.4445 88° East 553 636 36,000  Level FlightAware Transoceanic
10:05AM 48.0874 -167.2118 88° East 553 636 36,000  Level FlightAware Transoceanic
10:06AM 48.0963 -166.8472 89° East 554 638 36,000  Level FlightAware Transoceanic
10:07AM 48.0996 -166.6188 89° East 554 638 36,000  Level FlightAware Transoceanic
10:08AM 48.1025 -166.3904 89° East 554 638 36,000  Level FlightAware Transoceanic
10:09AM 48.1050 -166.1620 89° East 554 638 36,000  Level FlightAware Transoceanic
10:10AM 48.1070 -165.9335 89° East 554 638 36,000  Level FlightAware Transoceanic
10:11AM 48.1085 -165.7050 90° East 554 638 36,000  Level FlightAware Transoceanic
10:12AM 48.1096 -165.4766 90° East 554 638 36,000  Level FlightAware Transoceanic
10:13AM 48.1102 -165.2481 90° East 554 638 36,000  Level FlightAware Transoceanic
10:14AM 48.1104 -165.0196 90° East 554 638 36,000  Level FlightAware Transoceanic
10:14AM 48.1167 -165.0167 90° East 547 629 36,000  Level Oakland Oceanic (ODAPS)
10:15AM 48.1101 -164.7911 90° East 554 638 36,000  Level FlightAware Transoceanic
10:16AM 48.1094 -164.5626 90° East 554 638 36,000  Level FlightAware Transoceanic
10:17AM 48.1082 -164.3341 91° East 554 638 36,000  Level FlightAware Transoceanic
10:18AM 48.1066 -164.1057 91° East 554 638 36,000  Level FlightAware Transoceanic
10:19AM 48.1045 -163.8772 91° East 554 638 36,000  Level FlightAware Transoceanic
10:20AM 48.1065 -163.6465 91° East 547 629 36,000  Level FlightAware Transoceanic
10:21AM 48.1032 -163.4183 91° East 547 629 36,000  Level FlightAware Transoceanic
10:22AM 48.0995 -163.1900 91° East 547 629 36,000  Level FlightAware Transoceanic
10:23AM 48.0953 -162.9618 92° East 547 629 36,000  Level FlightAware Transoceanic
10:24AM 48.0907 -162.7336 92° East 547 629 36,000  Level FlightAware Transoceanic
10:25AM 48.0856 -162.5055 92° East 547 629 36,000  Level FlightAware Transoceanic
10:26AM 48.0801 -162.2774 92° East 547 629 36,000  Level FlightAware Transoceanic
10:27AM 48.0741 -162.0494 92° East 547 629 36,000  Level FlightAware Transoceanic
10:28AM 48.0677 -161.8214 93° East 547 629 36,000 840 Level FlightAware Transoceanic
10:28AM 48.0667 -161.9333 92° East 535 616 37,000  Climbing Oakland Oceanic (ODAPS)
10:29AM 48.0608 -161.5935 93° East 547 629 36,000 -600 Descending FlightAware Transoceanic
10:30AM 48.0535 -161.3656 93° East 547 629 36,000  Level FlightAware Transoceanic
10:31AM 48.0457 -161.1378 93° East 547 629 36,000  Level FlightAware Transoceanic
10:32AM 48.0374 -160.9101 93° East 547 629 36,000  Level FlightAware Transoceanic
10:33AM 48.0288 -160.6824 93° East 547 629 36,000 480 Level FlightAware Transoceanic
10:34AM 48.0258 -160.6439 93° East 535 616 37,000 480 Climbing FlightAware Transoceanic
10:35AM 48.0176 -160.4292 93° East 535 616 37,000  Level FlightAware Transoceanic
10:36AM 48.0090 -160.2146 94° East 535 616 37,000  Level FlightAware Transoceanic
10:37AM 48.0000 -160.0000 103° East 535 616 37,000  Level FlightAware Transoceanic
10:37AM 48.0000 -160.0000 103° East 538 619 37,000  Level Oakland Oceanic (ODAPS)
10:38AM 47.9674 -159.7844 103° East 535 616 37,000  Level FlightAware Transoceanic
10:39AM 47.9344 -159.5691 103° East 535 616 37,000  Level FlightAware Transoceanic
10:40AM 47.9011 -159.3540 103° East 535 616 37,000  Level FlightAware Transoceanic
10:41AM 47.8673 -159.1393 103° East 535 616 37,000  Level FlightAware Transoceanic
10:42AM 47.8331 -158.9248 103° East 535 616 37,000  Level FlightAware Transoceanic
10:42AM 47.8333 -158.9000 103° East 540 621 37,000  Level Oakland Oceanic (ODAPS)
10:43AM 47.7940 -158.6832 104° East 538 619 37,000  Level FlightAware Transoceanic
10:44AM 47.7583 -158.4648 104° East 538 619 37,000  Level FlightAware Transoceanic
10:45AM 47.7221 -158.2467 104° East 538 619 37,000  Level FlightAware Transoceanic
10:46AM 47.6855 -158.0288 104° East 538 619 37,000  Level FlightAware Transoceanic
10:47AM 47.6484 -157.8113 104° East 538 619 37,000  Level FlightAware Transoceanic
10:48AM 47.6143 -157.5924 104° East 540 621 37,000  Level FlightAware Transoceanic
10:49AM 47.5764 -157.3755 105° East 540 621 37,000  Level FlightAware Transoceanic
10:50AM 47.5381 -157.1590 105° East 540 621 37,000  Level FlightAware Transoceanic
10:51AM 47.4993 -156.9427 105° East 540 621 37,000  Level FlightAware Transoceanic
10:52AM 47.4601 -156.7268 105° East 540 621 37,000  Level FlightAware Transoceanic
10:53AM 47.4206 -156.5112 105° East 540 621 37,000  Level FlightAware Transoceanic
10:54AM 47.3806 -156.2960 105° East 540 621 37,000  Level FlightAware Transoceanic
10:55AM 47.3402 -156.0811 106° East 540 621 37,000  Level FlightAware Transoceanic
10:55AM 47.3167 -155.9333 106° East 534 615 37,000  Level Oakland Oceanic (ODAPS)
10:56AM 47.2995 -155.8665 106° East 540 621 37,000  Level FlightAware Transoceanic
10:57AM 47.2583 -155.6522 106° East 540 621 37,000  Level FlightAware Transoceanic
10:58AM 47.2167 -155.4383 106° East 540 621 37,000  Level FlightAware Transoceanic
10:59AM 47.1748 -155.2247 106° East 540 621 37,000  Level FlightAware Transoceanic
11:00AM 47.1324 -155.0114 106° East 540 621 37,000  Level FlightAware Transoceanic
11:01AM 47.0896 -154.7985 107° East 540 621 37,000  Level FlightAware Transoceanic
11:02AM 47.0696 -154.6823 107° East 534 615 37,000  Level FlightAware Transoceanic
11:03AM 47.0272 -154.4750 107° East 534 615 37,000  Level FlightAware Transoceanic
11:04AM 46.9843 -154.2680 107° East 534 615 37,000  Level FlightAware Transoceanic
11:05AM 46.9411 -154.0613 107° East 534 615 37,000  Level FlightAware Transoceanic
11:06AM 46.8975 -153.8549 107° East 534 615 37,000  Level FlightAware Transoceanic
11:07AM 46.8535 -153.6489 107° East 534 615 37,000  Level FlightAware Transoceanic
11:08AM 46.8092 -153.4432 108° East 534 615 37,000  Level FlightAware Transoceanic
11:09AM 46.7644 -153.2379 108° East 534 615 37,000  Level FlightAware Transoceanic
11:09AM 46.7167 -153.0667 108° East 536 617 37,000  Level Oakland Oceanic (ODAPS)
11:10AM 46.7194 -153.0329 108° East 534 615 37,000  Level FlightAware Transoceanic
11:11AM 46.6739 -152.8282 108° East 534 615 37,000  Level FlightAware Transoceanic
11:12AM 46.6281 -152.6239 108° East 534 615 37,000  Level FlightAware Transoceanic
11:13AM 46.5819 -152.4200 108° East 534 615 37,000  Level FlightAware Transoceanic
11:14AM 46.5354 -152.2163 108° East 534 615 37,000  Level FlightAware Transoceanic
11:15AM 46.4885 -152.0131 109° East 534 615 37,000  Level FlightAware Transoceanic
11:16AM 46.4398 -151.8304 108° East 536 617 37,000  Level FlightAware Transoceanic
11:17AM 46.3924 -151.6255 109° East 536 617 37,000  Level FlightAware Transoceanic
11:18AM 46.3446 -151.4211 109° East 536 617 37,000  Level FlightAware Transoceanic
11:19AM 46.2965 -151.2170 109° East 536 617 37,000  Level FlightAware Transoceanic
11:20AM 46.2480 -151.0132 109° East 536 617 37,000  Level FlightAware Transoceanic
11:21AM 46.1991 -150.8099 109° East 536 617 37,000  Level FlightAware Transoceanic
11:22AM 46.1499 -150.6069 109° East 536 617 37,000  Level FlightAware Transoceanic
11:23AM 46.1003 -150.4042 110° East 536 617 37,000  Level FlightAware Transoceanic
11:23AM 46.0667 -150.2500 111° Southeast 526 605 37,000  Level Oakland Oceanic (ODAPS)
11:24AM 46.0503 -150.2019 110° East 536 617 37,000  Level FlightAware Transoceanic
11:24AM 46.0000 -150.0000 102° East 518 596 37,000  Level Oakland Oceanic (ODAPS)
11:25AM 46.0000 -150.0000 102° East 536 617 37,000  Level FlightAware Transoceanic
11:26AM 45.9700 -149.8014 102° East 536 617 37,000  Level FlightAware Transoceanic
11:27AM 45.9396 -149.6031 102° East 536 617 37,000  Level FlightAware Transoceanic
11:28AM 45.9088 -149.4050 103° East 536 617 37,000  Level FlightAware Transoceanic
11:29AM 45.8778 -149.2070 103° East 536 617 37,000  Level FlightAware Transoceanic
11:30AM 45.8463 -149.0094 103° East 526 605 37,000  Level FlightAware Transoceanic
11:31AM 45.8108 -148.7887 103° East 518 596 37,000  Level FlightAware Transoceanic
11:32AM 45.7781 -148.5876 103° East 518 596 37,000  Level FlightAware Transoceanic
11:33AM 45.7449 -148.3868 103° East 518 596 37,000  Level FlightAware Transoceanic
11:34AM 45.7115 -148.1862 104° East 518 596 37,000  Level FlightAware Transoceanic
11:35AM 45.6776 -147.9858 104° East 518 596 37,000  Level FlightAware Transoceanic
11:36AM 45.6435 -147.7857 104° East 518 596 37,000  Level FlightAware Transoceanic
11:37AM 45.6090 -147.5858 104° East 518 596 37,000  Level FlightAware Transoceanic
11:37AM 45.5833 -147.4333 104° East 505 581 37,000  Level Oakland Oceanic (ODAPS)
11:38AM 45.5741 -147.3862 104° East 518 596 37,000  Level FlightAware Transoceanic
11:39AM 45.5389 -147.1868 104° East 518 596 37,000  Level FlightAware Transoceanic
11:40AM 45.5033 -146.9877 104° East 518 596 37,000  Level FlightAware Transoceanic
11:41AM 45.4674 -146.7888 105° East 518 596 37,000  Level FlightAware Transoceanic
11:42AM 45.4311 -146.5902 105° East 518 596 37,000  Level FlightAware Transoceanic
11:43AM 45.3770 -146.2929 105° East 505 581 37,000  Level FlightAware Transoceanic
11:44AM 45.3415 -146.1037 105° East 505 581 37,000  Level FlightAware Transoceanic
11:45AM 45.3057 -145.9147 105° East 505 581 37,000  Level FlightAware Transoceanic
11:46AM 45.2696 -145.7259 105° East 505 581 37,000  Level FlightAware Transoceanic
11:47AM 45.2331 -145.5374 105° East 505 581 37,000  Level FlightAware Transoceanic
11:48AM 45.1964 -145.3491 106° East 505 581 37,000  Level FlightAware Transoceanic
11:49AM 45.1594 -145.1610 106° East 505 581 37,000  Level FlightAware Transoceanic
11:50AM 45.1220 -144.9732 106° East 505 581 37,000  Level FlightAware Transoceanic
11:51AM 45.0843 -144.7857 106° East 505 581 37,000  Level FlightAware Transoceanic
11:51AM 45.0833 -144.7833 106° East 495 570 37,000  Level Oakland Oceanic (ODAPS)
11:52AM 45.0464 -144.5984 106° East 505 581 37,000  Level FlightAware Transoceanic
11:53AM 45.0081 -144.4113 106° East 505 581 37,000  Level FlightAware Transoceanic
11:54AM 44.9695 -144.2245 106° East 505 581 37,000  Level FlightAware Transoceanic
11:55AM 44.9306 -144.0379 106° East 505 581 37,000  Level FlightAware Transoceanic
11:56AM 44.8915 -143.8517 107° East 505 581 37,000  Level FlightAware Transoceanic
11:57AM 44.8512 -143.6638 107° East 495 570 37,000  Level FlightAware Transoceanic
11:58AM 44.8114 -143.4781 107° East 495 570 37,000  Level FlightAware Transoceanic
11:59AM 44.7714 -143.2927 107° East 495 570 37,000  Level FlightAware Transoceanic
12:00PM 44.7310 -143.1075 107° East 495 570 37,000  Level FlightAware Transoceanic
12:01PM 44.6904 -142.9226 107° East 495 570 37,000  Level FlightAware Transoceanic
12:02PM 44.6494 -142.7379 107° East 495 570 37,000  Level FlightAware Transoceanic
12:03PM 44.6082 -142.5535 108° East 495 570 37,000  Level FlightAware Transoceanic
12:04PM 44.5666 -142.3694 108° East 495 570 37,000  Level FlightAware Transoceanic
12:05PM 44.5248 -142.1855 108° East 495 570 37,000  Level FlightAware Transoceanic
12:05PM 44.5500 -142.2667 108° East 490 564 37,000  Level Oakland Oceanic (ODAPS)
12:06PM 44.4827 -142.0019 108° East 495 570 37,000  Level FlightAware Transoceanic
12:07PM 44.4402 -141.8186 108° East 495 570 37,000  Level FlightAware Transoceanic
12:08PM 44.3975 -141.6355 108° East 495 570 37,000  Level FlightAware Transoceanic
12:09PM 44.3545 -141.4527 108° East 495 570 37,000  Level FlightAware Transoceanic
12:10PM 44.3112 -141.2702 108° East 495 570 37,000  Level FlightAware Transoceanic
12:11PM 44.3017 -141.2152 109° East 490 564 37,000  Level FlightAware Transoceanic
12:12PM 44.2594 -141.0409 109° East 490 564 37,000  Level FlightAware Transoceanic
12:13PM 44.2168 -140.8668 109° East 490 564 37,000  Level FlightAware Transoceanic
12:14PM 44.1740 -140.6929 109° East 490 564 37,000  Level FlightAware Transoceanic
12:15PM 44.1309 -140.5193 109° East 490 564 37,000  Level FlightAware Transoceanic
12:16PM 44.0875 -140.3459 109° East 490 564 37,000  Level FlightAware Transoceanic
12:17PM 44.0439 -140.1728 109° East 490 564 37,000  Level FlightAware Transoceanic
12:17PM 44.0000 -140.0000 109° East 474 545 37,000  Level Oakland Oceanic (ODAPS)
12:18PM 44.0000 -140.0000 109° East 490 564 37,000  Level FlightAware Transoceanic
12:19PM 43.9574 -139.8256 109° East 490 564 37,000  Level FlightAware Transoceanic
12:19PM 43.9500 -139.8000 109° East 468 539 37,000  Level Oakland Oceanic (ODAPS)
12:20PM 43.9145 -139.6514 109° East 490 564 37,000  Level FlightAware Transoceanic
12:21PM 43.8713 -139.4775 109° East 490 564 37,000  Level FlightAware Transoceanic
12:22PM 43.8279 -139.3039 109° East 490 564 37,000  Level FlightAware Transoceanic
12:23PM 43.7842 -139.1305 109° East 490 564 37,000  Level FlightAware Transoceanic
12:24PM 43.7402 -138.9573 109° East 474 545 37,000  Level FlightAware Transoceanic
12:25PM 43.6936 -138.7789 110° East 468 539 37,000  Level FlightAware Transoceanic
12:26PM 43.6500 -138.6096 110° East 468 539 37,000  Level FlightAware Transoceanic
12:27PM 43.6061 -138.4405 110° East 468 539 37,000  Level FlightAware Transoceanic
12:28PM 43.5620 -138.2716 110° East 468 539 37,000  Level FlightAware Transoceanic
12:29PM 43.5176 -138.1030 110° East 468 539 37,000  Level FlightAware Transoceanic
12:30PM 43.4730 -137.9347 110° East 468 539 37,000  Level FlightAware Transoceanic
12:31PM 43.4282 -137.7666 110° East 468 539 37,000  Level FlightAware Transoceanic
12:32PM 43.3831 -137.5988 110° East 468 539 37,000  Level FlightAware Transoceanic
12:33PM 43.3377 -137.4312 110° East 468 539 37,000  Level FlightAware Transoceanic
12:33PM 43.3167 -137.3667 110° East 470 541 37,000  Level Oakland Oceanic (ODAPS)
12:34PM 43.2921 -137.2639 111° Southeast 468 539 37,000  Level FlightAware Transoceanic
12:35PM 43.2463 -137.0968 111° Southeast 468 539 37,000  Level FlightAware Transoceanic
12:36PM 43.2002 -136.9299 111° Southeast 468 539 37,000  Level FlightAware Transoceanic
12:37PM 43.1539 -136.7633 111° Southeast 468 539 37,000  Level FlightAware Transoceanic
12:38PM 43.1073 -136.5970 111° Southeast 468 539 37,000  Level FlightAware Transoceanic
12:39PM 43.0355 -136.3535 111° Southeast 470 541 37,000  Level FlightAware Transoceanic
12:40PM 42.9878 -136.1855 111° Southeast 470 541 37,000  Level FlightAware Transoceanic
12:41PM 42.9398 -136.0178 111° Southeast 470 541 37,000  Level FlightAware Transoceanic
12:42PM 42.8916 -135.8504 112° Southeast 470 541 37,000  Level FlightAware Transoceanic
12:43PM 42.8432 -135.6832 112° Southeast 470 541 37,000  Level FlightAware Transoceanic
12:44PM 42.7945 -135.5163 112° Southeast 470 541 37,000  Level FlightAware Transoceanic
12:45PM 42.7455 -135.3496 112° Southeast 470 541 37,000  Level FlightAware Transoceanic
12:46PM 42.6964 -135.1832 112° Southeast 470 541 37,000  Level FlightAware Transoceanic
12:46PM 42.6500 -135.0167 112° Southeast 467 537 37,000  Level Oakland Oceanic (ODAPS)
12:47PM 42.6469 -135.0171 112° Southeast 470 541 37,000  Level FlightAware Transoceanic
12:48PM 42.5973 -134.8513 112° Southeast 470 541 37,000  Level FlightAware Transoceanic
12:49PM 42.5474 -134.6857 112° Southeast 470 541 37,000  Level FlightAware Transoceanic
12:50PM 42.4972 -134.5204 112° Southeast 470 541 37,000  Level FlightAware Transoceanic
12:51PM 42.4469 -134.3553 113° Southeast 470 541 37,000  Level FlightAware Transoceanic
12:52PM 42.3963 -134.1905 113° Southeast 470 541 37,000  Level FlightAware Transoceanic
12:53PM 42.3479 -134.0256 113° Southeast 467 537 37,000  Level FlightAware Transoceanic
12:54PM 42.2967 -133.8613 113° Southeast 467 537 37,000  Level FlightAware Transoceanic
12:55PM 42.2453 -133.6973 113° Southeast 467 537 37,000  Level FlightAware Transoceanic
12:56PM 42.1936 -133.5336 113° Southeast 467 537 37,000  Level FlightAware Transoceanic
12:57PM 42.1418 -133.3702 113° Southeast 467 537 37,000  Level FlightAware Transoceanic
12:58PM 42.0896 -133.2070 113° Southeast 467 537 37,000  Level FlightAware Transoceanic
12:59PM 42.0373 -133.0441 113° Southeast 467 537 37,000  Level FlightAware Transoceanic
01:00PM 41.9847 -132.8814 114° Southeast 467 537 37,000  Level FlightAware Transoceanic
01:00PM 41.9667 -132.8000 114° Southeast 455 524 37,000  Level Oakland Oceanic (ODAPS)
01:01PM 41.9319 -132.7191 114° Southeast 467 537 37,000  Level FlightAware Transoceanic
01:02PM 41.8789 -132.5569 114° Southeast 467 537 37,000  Level FlightAware Transoceanic
01:03PM 41.8256 -132.3951 114° Southeast 467 537 37,000  Level FlightAware Transoceanic
01:04PM 41.7721 -132.2335 114° Southeast 467 537 37,000  Level FlightAware Transoceanic
01:05PM 41.7184 -132.0722 114° Southeast 467 537 37,000  Level FlightAware Transoceanic
01:06PM 41.7050 -132.0138 114° Southeast 455 524 37,000  Level FlightAware Transoceanic
01:07PM 41.6520 -131.8574 114° Southeast 455 524 37,000  Level FlightAware Transoceanic
01:08PM 41.5988 -131.7012 115° Southeast 455 524 37,000  Level FlightAware Transoceanic
01:09PM 41.5454 -131.5452 115° Southeast 455 524 37,000  Level FlightAware Transoceanic
01:10PM 41.4918 -131.3896 115° Southeast 455 524 37,000  Level FlightAware Transoceanic
01:11PM 41.4380 -131.2341 115° Southeast 455 524 37,000  Level FlightAware Transoceanic
01:12PM 41.3840 -131.0790 115° Southeast 455 524 37,000  Level FlightAware Transoceanic
01:13PM 41.3297 -130.9241 115° Southeast 455 524 37,000  Level FlightAware Transoceanic
01:14PM 41.2753 -130.7694 115° Southeast 455 524 37,000  Level FlightAware Transoceanic
01:14PM 41.2500 -130.7000 115° Southeast 437 503 37,000  Level Oakland Oceanic (ODAPS)
01:15PM 41.2206 -130.6150 115° Southeast 455 524 37,000  Level FlightAware Transoceanic
01:16PM 41.1658 -130.4609 115° Southeast 455 524 37,000  Level FlightAware Transoceanic
01:17PM 41.1107 -130.3070 115° Southeast 455 524 37,000  Level FlightAware Transoceanic
01:18PM 41.0555 -130.1534 116° Southeast 455 524 37,000  Level FlightAware Transoceanic
01:19PM 41.0000 -130.0000 106° East 455 524 37,000  Level FlightAware Transoceanic
01:19PM 41.0000 -130.0000 106° East 451 519 37,000  Level Oakland Oceanic (ODAPS)
01:20PM 40.9651 -129.8405 106° East 437 503 37,000  Level FlightAware Transoceanic
01:21PM 40.9300 -129.6813 106° East 437 503 37,000  Level FlightAware Transoceanic
01:22PM 40.8947 -129.5222 106° East 437 503 37,000  Level FlightAware Transoceanic
01:23PM 40.8591 -129.3632 107° East 437 503 37,000  Level FlightAware Transoceanic
01:24PM 40.8233 -129.2045 107° East 437 503 37,000  Level FlightAware Transoceanic
01:25PM 40.7874 -129.0459 107° East 451 519 37,000  Level FlightAware Transoceanic
01:26PM 40.7512 -128.8874 107° East 451 519 37,000  Level FlightAware Transoceanic
01:27PM 40.7147 -128.7292 107° East 451 519 37,000  Level FlightAware Transoceanic
01:28PM 40.6781 -128.5711 107° East 451 519 37,000  Level FlightAware Transoceanic
01:28PM 40.6667 -128.5500 107° East 467 537 37,000  Level Oakland Oceanic (ODAPS)
01:29PM 40.6413 -128.4132 107° East 451 519 37,000  Level FlightAware Transoceanic
01:30PM 40.6042 -128.2555 107° East 451 519 37,000  Level FlightAware Transoceanic
01:31PM 40.5669 -128.0979 107° East 451 519 37,000  Level FlightAware Transoceanic
01:32PM 40.5294 -127.9405 107° East 451 519 37,000  Level FlightAware Transoceanic
01:33PM 40.4917 -127.7833 108° East 451 519 37,000  Level FlightAware Transoceanic
01:34PM 40.4492 -127.6180 107° East 467 537 37,000  Level FlightAware Transoceanic
01:34PM 40.4222 -127.4933 113° Southeast 479 551 37,000  Level Oakland Center
01:35PM 40.4122 -127.4632 107° East 467 537 37,000  Level FlightAware Transoceanic
01:35PM 40.3811 -127.3267 108° East 479 551 37,000  Level Oakland Center
01:36PM 40.3750 -127.3086 108° East 467 537 37,000  Level FlightAware Transoceanic
01:36PM 40.3406 -127.1617 108° East 479 551 37,000  Level Oakland Center
01:37PM 40.3376 -127.1542 108° East 467 537 37,000  Level FlightAware Transoceanic
01:37PM 40.2886 -126.9644 109° East 478 550 37,000  Level Oakland Center
01:38PM 40.3000 -127.0000 112° Southeast 467 537 37,000  Level FlightAware Transoceanic
01:38PM 40.2319 -126.8086 115° Southeast 475 547 37,000  Level Oakland Center
01:39PM 40.2482 -126.8349 112° Southeast 467 537 37,000  Level FlightAware Transoceanic
01:39PM 40.1556 -126.6683 125° Southeast 473 544 37,000  Level Oakland Center
01:40PM 40.1961 -126.6700 113° Southeast 467 537 37,000  Level FlightAware Transoceanic
01:41PM 40.0819 -126.5258 124° Southeast 475 547 37,000  Level Oakland Center
01:42PM 40.0086 -126.3828 124° Southeast 476 548 37,000  Level Oakland Center
01:43PM 39.9342 -126.2392 124° Southeast 479 551 37,000  Level Oakland Center
01:48PM 39.5060 -125.4290 124° Southeast 470 541 37,000  Level FlightAware
01:49PM 39.4710 -125.3640 125° Southeast 470 541 37,000  Level FlightAware
01:49PM 39.4240 -125.2770 125° Southeast 469 540 37,000  Level FlightAware
01:50PM 39.3840 -125.2020 125° Southeast 473 544 37,000  Level FlightAware
01:50PM 39.3430 -125.1270 125° Southeast 467 537 37,000  Level FlightAware
01:51PM 39.2850 -125.0160 124° Southeast 466 536 37,000  Level FlightAware
01:52PM 39.2290 -124.9160 126° Southeast 467 537 37,000 -300 Level FlightAware
01:53PM 39.1700 -124.8060 125° Southeast 460 529 36,600 -780 Descending FlightAware
01:53PM 39.1290 -124.7320 126° Southeast 459 528 36,000 -1,140 Descending FlightAware
01:54PM 39.0820 -124.6470 125° Southeast 463 533 35,300 -1,020 Descending FlightAware
01:54PM 39.0490 -124.5860 125° Southeast 463 533 34,900 -1,080 Descending FlightAware
01:55PM 38.9970 -124.4920 125° Southeast 467 537 34,100 -1,260 Descending FlightAware
01:56PM 38.9500 -124.4060 125° Southeast 472 543 33,300 -1,200 Descending FlightAware
01:56PM 38.9060 -124.3270 126° Southeast 475 547 32,700 -1,080 Descending FlightAware
01:57PM 38.8620 -124.2470 125° Southeast 478 550 32,100 -1,020 Descending FlightAware
01:57PM 38.8150 -124.1630 126° Southeast 479 551 31,500 -1,020 Descending FlightAware
01:58PM 38.7740 -124.0890 125° Southeast 480 552 31,000 -1,020 Descending FlightAware
01:58PM 38.7280 -124.0070 126° Southeast 482 555 30,400 -1,020 Descending FlightAware
01:59PM 38.6800 -123.9210 126° Southeast 483 556 29,800 -840 Descending FlightAware
01:59PM 38.6510 -123.8690 126° Southeast 479 551 29,600 -540 Descending FlightAware
02:00PM 38.6010 -123.7800 126° Southeast 476 548 29,200 -660 Descending FlightAware
02:01PM 38.5310 -123.6570 126° Southeast 467 537 28,600 -1,440 Descending FlightAware
02:02PM 38.4860 -123.5770 126° Southeast 461 531 27,400 -2,100 Descending FlightAware
02:02PM 38.4370 -123.4900 126° Southeast 451 519 26,000 -2,220 Descending FlightAware
02:03PM 38.3980 -123.4220 126° Southeast 444 511 24,800 -2,160 Descending FlightAware
02:03PM 38.3950 -123.4170 127° Southeast 445 512 24,800 -1,500 Level FlightAware
02:04PM 38.3290 -123.3010 126° Southeast 433 498 23,300 -1,800 Descending FlightAware
02:04PM 38.2870 -123.2270 126° Southeast 427 491 22,000 -2,100 Descending FlightAware
02:05PM 38.2270 -123.1220 126° Southeast 415 478 20,200 -2,100 Descending FlightAware
02:06PM 38.1880 -123.0550 127° Southeast 407 468 19,000 -2,100 Descending FlightAware
02:06PM 38.1490 -122.9870 126° Southeast 400 460 17,800 -2,040 Descending FlightAware
02:07PM 38.1100 -122.9200 126° Southeast 393 452 16,600 -2,040 Descending FlightAware
02:08PM 38.0690 -122.8570 130° Southeast 380 437 15,400 -2,100 Descending FlightAware
02:08PM 38.0230 -122.8060 139° Southeast 372 428 14,200 -2,100 Descending FlightAware
02:09PM 37.9820 -122.7610 139° Southeast 368 423 13,100 -2,160 Descending FlightAware
02:09PM 37.9350 -122.7110 140° Southeast 364 419 11,800 -1,860 Descending FlightAware
02:10PM 37.8880 -122.6620 141° Southeast 364 419 10,900 -660 Descending FlightAware
02:11PM 37.8300 -122.5990 139° Southeast 363 418 10,900  Level FlightAware
02:11PM 37.7733 -122.5380 140° Southeast 363 418 10,900  Level FlightAware ADS-B
02:12PM 37.7210 -122.4820 140° Southeast 346 398 10,900  Level FlightAware ADS-B
02:13PM 37.6745 -122.4320 140° Southeast 304 350 10,900  Level FlightAware ADS-B
02:13PM 37.6438 -122.4000 140° Southeast 274 315 10,900  Level FlightAware ADS-B
02:14PM 37.6254 -122.3800 139° Southeast 256 295 10,900  Level FlightAware ADS-B
02:14PM 37.6175 -122.3730 145° Southeast 251 289 10,900  Level FlightAware ADS-B
02:14PM 37.5783 -122.3460 151° Southeast 247 284 10,900 -300 Level FlightAware ADS-B
02:15PM 37.5481 -122.3260 152° Southeast 241 277 10,600 -960 Descending FlightAware ADS-B
02:15PM 37.5211 -122.3080 152° Southeast 241 277 10,000 -1,140 Descending FlightAware ADS-B
02:16PM 37.5015 -122.2950 152° Southeast 239 275 9,700 -660 Descending FlightAware ADS-B
02:16PM 37.4833 -122.2840 154° Southeast 236 272 9,600 -660 Descending FlightAware ADS-B
02:16PM 37.4723 -122.2770 153° Southeast 235 270 9,400 -840 Descending FlightAware ADS-B
02:16PM 37.4682 -122.2750 159° South 234 269 9,400 -720 Level FlightAware ADS-B
02:16PM 37.4632 -122.2740 171° South 234 269 9,300 -540 Descending FlightAware ADS-B
02:16PM 37.4557 -122.2750 186° South 233 268 9,300 -540 Level FlightAware ADS-B
02:17PM 37.4503 -122.2770 196° South 233 268 9,200 -780 Descending FlightAware ADS-B
02:17PM 37.4474 -122.2790 209° Southwest 234 269 9,200  Level FlightAware ADS-B
02:17PM 37.4439 -122.2810 204° Southwest 235 270 9,200 -780 Level FlightAware ADS-B
02:17PM 37.4407 -122.2850 225° Southwest 235 270 9,100 -600 Descending FlightAware ADS-B
02:17PM 37.4365 -122.2910 229° Southwest 234 269 9,100  Level FlightAware ADS-B
02:17PM 37.4342 -122.2940 226° Southwest 232 267 9,100 -780 Level FlightAware ADS-B
02:17PM 37.4310 -122.3000 236° Southwest 230 265 9,000 -480 Descending FlightAware ADS-B
02:17PM 37.4192 -122.3230 237° Southwest 221 254 8,900 -180 Descending FlightAware ADS-B
02:18PM 37.4101 -122.3400 236° Southwest 202 232 8,900  Level FlightAware ADS-B
02:18PM 37.4025 -122.3550 237° Southwest 200 230 8,900  Level FlightAware ADS-B
02:18PM 37.3947 -122.3710 238° Southwest 200 230 8,900  Level FlightAware ADS-B
02:18PM 37.3866 -122.3860 236° Southwest 201 231 8,900  Level FlightAware ADS-B
02:19PM 37.3790 -122.4010 237° Southwest 201 231 8,900  Level FlightAware ADS-B
02:19PM 37.3710 -122.4170 238° Southwest 200 230 8,900 -240 Level FlightAware ADS-B
02:19PM 37.3629 -122.4330 238° Southwest 202 232 8,800 -420 Descending FlightAware ADS-B
02:19PM 37.3551 -122.4480 237° Southwest 200 230 8,700 -360 Descending FlightAware ADS-B
02:20PM 37.3455 -122.4670 238° Southwest 198 228 8,600 -480 Descending FlightAware ADS-B
02:20PM 37.3412 -122.4750 236° Southwest 199 229 8,500 -480 Descending FlightAware ADS-B
02:20PM 37.3391 -122.4790 237° Southwest 199 229 8,500 -900 Level FlightAware ADS-B
02:20PM 37.3373 -122.4820 233° Southwest 199 229 8,400 -900 Descending FlightAware ADS-B
02:20PM 37.3290 -122.4890 214° Southwest 197 227 8,300 -360 Descending FlightAware ADS-B
02:20PM 37.3215 -122.4910 192° South 198 228 8,300 -540 Level FlightAware ADS-B
02:20PM 37.3180 -122.4910 180° South 198 228 8,200 -780 Descending FlightAware ADS-B
02:20PM 37.3146 -122.4900 167° South 199 229 8,200  Level FlightAware ADS-B
02:21PM 37.3120 -122.4880 149° Southeast 200 230 8,200 -900 Level FlightAware ADS-B
02:21PM 37.3091 -122.4860 151° Southeast 202 232 8,100 -900 Descending FlightAware ADS-B
02:21PM 37.3063 -122.4840 150° Southeast 203 234 8,100  Level FlightAware ADS-B
02:21PM 37.3042 -122.4810 131° Southeast 204 235 8,100  Level FlightAware ADS-B
02:21PM 37.3020 -122.4770 125° Southeast 205 236 8,100 -900 Level FlightAware ADS-B
02:21PM 37.3005 -122.4730 115° Southeast 206 237 8,000 -900 Descending FlightAware ADS-B
02:21PM 37.2990 -122.4690 115° Southeast 206 237 8,000 -360 Level FlightAware ADS-B
02:21PM 37.2936 -122.4530 113° Southeast 204 235 7,900 -240 Descending FlightAware ADS-B
02:21PM 37.2883 -122.4360 111° Southeast 205 236 7,900  Level FlightAware ADS-B
02:22PM 37.2828 -122.4190 112° Southeast 205 236 7,900  Level FlightAware ADS-B
02:22PM 37.2772 -122.4010 111° Southeast 206 237 7,900  Level FlightAware ADS-B
02:22PM 37.2718 -122.3840 112° Southeast 206 237 7,900  Level FlightAware ADS-B
02:22PM 37.2659 -122.3660 112° Southeast 207 238 7,900  Level FlightAware ADS-B
02:23PM 37.2606 -122.3490 111° Southeast 207 238 7,900  Level FlightAware ADS-B
02:23PM 37.2550 -122.3320 112° Southeast 207 238 7,900  Level FlightAware ADS-B
02:23PM 37.2494 -122.3140 111° Southeast 205 236 7,900  Level FlightAware ADS-B
02:23PM 37.2443 -122.2990 113° Southeast 205 236 7,900  Level FlightAware ADS-B
02:24PM 37.2429 -122.2940 109° East 205 236 7,900  Level FlightAware ADS-B
02:24PM 37.2419 -122.2890 104° East 205 236 7,900  Level FlightAware ADS-B
02:24PM 37.2415 -122.2810 94° East 207 238 7,900  Level FlightAware ADS-B
02:24PM 37.2420 -122.2770 81° East 210 242 7,900  Level FlightAware ADS-B
02:24PM 37.2430 -122.2720 76° East 212 244 7,900  Level FlightAware ADS-B
02:24PM 37.2453 -122.2660 64° Northeast 214 246 7,900  Level FlightAware ADS-B
02:24PM 37.2488 -122.2610 49° Northeast 217 250 7,900  Level FlightAware ADS-B
02:24PM 37.2517 -122.2580 39° Northeast 218 251 7,900  Level FlightAware ADS-B
02:24PM 37.2626 -122.2480 36° Northeast 219 252 7,900  Level FlightAware ADS-B
02:25PM 37.2741 -122.2390 32° Northeast 219 252 7,900 -240 Level FlightAware ADS-B
02:25PM 37.2884 -122.2270 34° Northeast 217 250 7,800 -780 Descending FlightAware ADS-B
02:25PM 37.3011 -122.2160 35° Northeast 216 249 7,500 -1,020 Descending FlightAware ADS-B
02:25PM 37.3139 -122.2060 32° Northeast 216 249 7,300 -1,020 Descending FlightAware ADS-B
02:26PM 37.3267 -122.1950 34° Northeast 214 246 7,000 -1,200 Descending FlightAware ADS-B
02:26PM 37.3391 -122.1850 33° Northeast 214 246 6,700 -1,140 Descending FlightAware ADS-B
02:26PM 37.3490 -122.1770 33° Northeast 212 244 6,500 -1,080 Descending FlightAware ADS-B
02:26PM 37.3621 -122.1660 34° Northeast 211 243 6,200 -1,140 Descending FlightAware ADS-B
02:27PM 37.3760 -122.1540 34° Northeast 210 242 5,900 -1,140 Descending FlightAware ADS-B
02:27PM 37.3883 -122.1440 33° Northeast 209 241 5,600 -1,020 Descending FlightAware ADS-B
02:27PM 37.4007 -122.1340 33° Northeast 208 239 5,400 -1,020 Descending FlightAware ADS-B
02:27PM 37.4129 -122.1230 36° Northeast 206 237 5,100 -1,200 Descending FlightAware ADS-B
02:28PM 37.4255 -122.1130 32° Northeast 204 235 4,800 -1,080 Descending FlightAware ADS-B
02:28PM 37.4447 -122.0990 30° Northeast 204 235 4,400 -1,020 Descending FlightAware ADS-B
02:28PM 37.4509 -122.0980 North 198 228 4,300 -780 Descending FlightAware ADS-B
02:28PM 37.4594 -122.1010 344° North 194 223 4,200 -900 Descending FlightAware ADS-B
02:28PM 37.4634 -122.1040 329° Northwest 194 223 4,100 -1,200 Descending FlightAware ADS-B
02:29PM 37.4756 -122.1140 327° Northwest 196 226 3,800 -1,020 Descending FlightAware ADS-B
02:29PM 37.4901 -122.1270 325° Northwest 198 228 3,500 -840 Descending FlightAware ADS-B
02:29PM 37.5032 -122.1380 326° Northwest 197 227 3,300 -780 Descending FlightAware ADS-B
02:29PM 37.5079 -122.1430 320° Northwest 196 226 3,200 -480 Descending FlightAware ADS-B
02:29PM 37.5123 -122.1480 318° Northwest 197 227 3,200 -360 Level FlightAware ADS-B
02:30PM 37.5185 -122.1570 311° West 197 227 3,100 -600 Descending FlightAware ADS-B
02:30PM 37.5254 -122.1660 314° West 193 222 3,000 -480 Descending FlightAware ADS-B
02:30PM 37.5346 -122.1790 312° West 188 216 2,900 -600 Descending FlightAware ADS-B
02:30PM 37.5384 -122.1850 309° West 188 216 2,800 -960 Descending FlightAware ADS-B
02:30PM 37.5415 -122.1900 308° West 188 216 2,700 -960 Descending FlightAware ADS-B
02:30PM 37.5447 -122.1960 304° West 186 214 2,600 -840 Descending FlightAware ADS-B
02:31PM 37.5513 -122.2100 301° West 185 213 2,400 -780 Descending FlightAware ADS-B
02:31PM 37.5577 -122.2240 300° West 183 211 2,200 -780 Descending FlightAware ADS-B
02:31PM 37.5638 -122.2380 299° West 182 209 2,000 -780 Descending FlightAware ADS-B
02:31PM 37.5676 -122.2470 298° West 178 205 1,900 -900 Descending FlightAware ADS-B
02:32PM 37.5720 -122.2580 297° West 168 193 1,700 -900 Descending FlightAware ADS-B
02:32PM 37.5774 -122.2710 298° West 162 186 1,500 -840 Descending FlightAware ADS-B
02:32PM 37.5823 -122.2830 297° West 149 171 1,300 -840 Descending FlightAware ADS-B
02:32PM 37.5870 -122.2940 298° West 143 165 1,100 -780 Descending FlightAware ADS-B
02:33PM 37.5916 -122.3050 298° West 141 162 900 -780 Descending FlightAware ADS-B
02:33PM 37.5969 -122.3180 297° West 139 160 700 -840 Descending FlightAware ADS-B
02:33PM 37.6005 -122.3260 300° West 136 157 500 -840 Descending FlightAware ADS-B
02:33PM 37.6056 -122.3380 298° West 132 152 300 -780 Descending FlightAware ADS-B
02:34PM 37.6099 -122.3490 296° West 129 148 100 -840 Descending FlightAware ADS-B
02:34PM 37.6121 -122.3540 299° West 129 148 -780 Descending FlightAware ADS-B
02:34PM 37.6173 -122.3660 299° West 115 132  Level FlightAware ADS-B